Oihan Castro

Chefscout - Zaragoza
4 Apr 2027
Sonntag
Verarbeitung

Persönlichkeit

Anpassungsfähigkeit (18) Ehrgeiz (9) Kontroverse (16) Loyalität (2) Druck (18) Professionalität (20) Fairness (9) Temperament (13)

Profil

Trainerstil Demokratisch
Lizenz Kontinentale C
Entschlossenheit 5
Menschenführung 9
Motivation 6
Disziplin 8
Arbeitszufriedenheit
77%
Ermüdung
0%
Rolle Chefscout
Gehalt 66.7K p/W
Vertrag 14.03.2028

Leistung

Verhalten Gut
Trainingseffektivität
29%
Spielerentwicklung
50%
Verletzungsprävention
30%
Taktische Umsetzung
45%

Letzte Ereignisse

Empfahl ein Transferziel jetzt
Nahm an einer Scouting-Besprechung teil jetzt
Empfahl ein Transferziel jetzt
Empfahl ein Transferziel jetzt
Empfahl ein Transferziel jetzt
Nahm an einer Scouting-Besprechung teil jetzt
Spieler begutachtet jetzt
Spieler begutachtet jetzt

Aktuell beobachtet

137
Spieler Verein Status Fähigkeit Vertrauen Beobachtet Zuletzt beobachtet Letzte Stimme
Lucas Agazzi Defensor Sporting Aktiv 122 / 127 40% 3 02.04.2027 -
Joseph Jones Kryvbas Aktiv 93 / 94 40% 2 02.04.2027 -
Juan Pablo De la Reta Maipú Aktiv 103 / 113 40% 3 31.03.2027 -
Darwin Pérez Mineros de Guayana Aktiv 83 / 89 40% 1 31.03.2027 -
Mathis Amougou RC Strasbourg Aktiv 114 / 113 40% 2 28.03.2027 -
André Porto Anderlecht Aktiv 118 / 117 40% 1 26.03.2027 -
Eliás Montiel Pachuca Aktiv 137 / 137 40% 2 25.03.2027 -
Felipe Obradovich FCSB Aktiv 103 / 111 40% 1 19.03.2027 -
Jakub Jendryka Ruch Aktiv 91 / 99 40% 1 19.03.2027 -
Alexis Fretes Libertad Aktiv 110 / 116 40% 1 18.03.2027 -
João Teixeira Porto Aktiv 113 / 116 40% 1 18.03.2027 -
Surprise Manthosi Polokwane City Aktiv 98 / 86 40% 1 17.03.2027 -
Tiago Freitas Benfica Aktiv 104 / 116 40% 1 16.03.2027 -
Luca Barani Forli Aktiv 81 / 97 40% 1 16.03.2027 -
Enzo Cardozo Almirante Brown Aktiv 107 / 119 40% 1 15.03.2027 -
Facundo Di Biasi Gimnasia La Plata Aktiv 118 / 126 40% 1 14.03.2027 -
Martim Cunha Porto Aktiv 107 / 101 40% 1 13.03.2027 -
Santiago Fernández Talleres Aktiv 122 / 123 40% 1 13.03.2027 -
Samuel Lucero Defensa y Justicia Aktiv 119 / 125 40% 2 12.03.2027 -
Juho Lähteenmäki FC Nordsjaelland Aktiv 108 / 128 40% 1 12.03.2027 -
Jon Garro Real Sociedad Aktiv 84 / 92 40% 3 08.03.2027 -
Ignacio Perruzzi San Lorenzo Aktiv 115 / 130 40% 1 08.03.2027 -
Agustín Medina Lanús Aktiv 123 / 125 40% 1 07.03.2027 -
Camilo Rey Domenech Boca Juniors Aktiv 111 / 126 40% 1 07.03.2027 -
Emirhan Başyiğit Sivasspor Aktiv 113 / 122 40% 1 04.03.2027 -
Leandro Martins Benfica Aktiv 87 / 101 40% 1 03.03.2027 -
Sergi Guardiola Córdoba Aktiv 116 / 112 62% 1 18.01.2027 Befürworten
Agustín Hausch Defensa y Justicia Verloren 111 / 123 40% 2 08.01.2027 -
Brayan Gil Baltika Aktiv 130 / 116 40% 1 08.01.2027 -
Sampson Dweh Viktoria Plzen Aktiv 133 / 134 66% 1 01.01.2027 Befürworten
Mao Hosoya Corinthians Bericht bereit 134 / 135 67% 1 01.01.2027 Befürworten
Federico Pereira Toluca Aktiv 135 / 135 68% 1 01.01.2027 Befürworten
Thomas Carrique Andorra Aktiv 108 / 119 62% 1 01.01.2027 Befürworten
Celso Sidney Cherno More Aktiv 109 / 103 40% 1 31.12.2026 -
Lucio Castillo Colegiales Aktiv 104 / 114 40% 3 30.12.2026 -
Martín Tejón Maritimo Aktiv 123 / 117 40% 1 30.12.2026 -
Bayron Duarte Queretaro Aktiv 118 / 115 40% 1 30.12.2026 -
Alán Bautista Pachuca Aktiv 119 / 104 40% 1 30.12.2026 -
Angelo Gattermayer Wolfsberger AC Aktiv 124 / 117 40% 2 29.12.2026 -
Franco Ibarra Rosario Central Aktiv 122 / 128 40% 1 29.12.2026 -
Carlos Paraco Metalist Aktiv 115 / 110 40% 1 28.12.2026 -
Mykola Haiduchyk Polissia Aktiv 104 / 110 40% 1 28.12.2026 -
Rok Zajc NK Domzale Aktiv 121 / 116 40% 2 24.12.2026 -
Alejandro Cantero Huesca Aktiv 121 / 108 40% 1 24.12.2026 -
Matías Giménez Rojas Argentinos Juniors Verloren 125 / 125 40% 1 22.12.2026 -
Jesús Garza Tigres Aktiv 130 / 124 40% 1 22.12.2026 -
Francisco González Tijuana Aktiv 114 / 118 40% 1 22.12.2026 -
Alexander Díaz Deportivo Riestra Verloren 126 / 114 40% 4 20.12.2026 -
Ezequiel Bullaude Santos Laguna Aktiv 117 / 123 40% 2 20.12.2026 -
Diego Valencia Gornik Leczna Aktiv 104 / 106 40% 1 20.12.2026 -
Iker Benito Queretaro Aktiv 135 / 128 40% 3 18.12.2026 Beobachten
Job Ochieng Real Sociedad Aktiv 111 / 116 40% 1 18.12.2026 -
Etiosa Ighodaro Kaizer Chiefs Aktiv 119 / 120 40% 1 18.12.2026 -
Pedro Vite Pumas UNAM Aktiv 119 / 131 40% 1 18.12.2026 -
Alejandro Piedrahita Deportivo Pereira Aktiv 125 / 120 40% 6 16.12.2026 -
Mathías Tomás Puebla Aktiv 122 / 112 40% 4 16.12.2026 -
Yegor Golenkov Rostov Aktiv 116 / 118 40% 2 14.12.2026 -
Fiete Arp OB Aktiv 112 / 119 40% 1 14.12.2026 -
Ramiro Ruiz Rodríguez Atlético Tucumán Aktiv 114 / 118 40% 4 13.12.2026 -
Carlos Zepeda Kvant Aktiv 75 / 77 40% 1 13.12.2026 -
Esteban Obregón Montevideo City Torque Verloren 120 / 108 40% 3 12.12.2026 -
Matthew Hoppe SonderjyskE Aktiv 100 / 122 40% 1 12.12.2026 -
Fidel Ambríz Monterrey Aktiv 138 / 135 40% 2 11.12.2026 -
Duk Atlas Aktiv 120 / 104 40% 7 11.12.2026 -
Franco Déboli Slaven Belupo Aktiv 96 / 101 40% 1 11.12.2026 -
Jerónimo Porto Lapegüe Slask Aktiv 119 / 108 40% 1 11.12.2026 -
Jefry Zapata Once Caldas Aktiv 120 / 110 40% 5 09.12.2026 -
Marco Miori Alvarado Aktiv 106 / 115 40% 2 09.12.2026 -
Ramiro Sordo Santos Laguna Aktiv 121 / 127 40% 1 09.12.2026 -
Joaquín Gho Argentinos Juniors Aktiv 120 / 119 40% 1 09.12.2026 -
Lautaro Gordillo Colegiales Aktiv 107 / 113 40% 2 05.12.2026 -
Seedy Jatta Sturm Graz Aktiv 120 / 116 40% 1 28.11.2026 -
Juan Cruz de los Santos Nacional Aktiv 115 / 129 40% 4 27.11.2026 -
Yoshan Valois Lanús Aktiv 119 / 116 40% 2 26.11.2026 -
Dale Taylor Blackpool Aktiv 105 / 119 40% 1 26.11.2026 -
Tamble Monteiro Rio Ave Aktiv 127 / 120 40% 1 23.11.2026 -
Agustín Gallo Tristán Suárez Aktiv 116 / 109 40% 1 22.11.2026 -
Xavier Biscayzacú Defensor Sporting Aktiv 133 / 129 40% 2 21.11.2026 -
Thiago Calone All Boys Aktiv 109 / 109 40% 1 21.11.2026 -
Alex Luna Instituto Aktiv 131 / 137 40% 1 21.11.2026 -
Santiago Sala Güemes Aktiv 107 / 116 40% 1 18.11.2026 -
Luciano Cosentino Wanderers Aktiv 119 / 129 40% 1 15.11.2026 -
Florián Monzón Atlas Aktiv 127 / 127 40% 4 14.11.2026 -
Tomás Bottari Independiente Rivadavia Aktiv 128 / 117 40% 1 13.11.2026 -
Razvan Puscas Astra Verloren 122 / 111 40% 1 12.11.2026 -
Camilo Perez Cortulua Aktiv 116 / 127 40% 1 11.11.2026 -
Camilo Durán Bloemfontein Celtic Aktiv 111 / 108 40% 3 08.11.2026 -
Dylan Borrero America de Cali Aktiv 120 / 118 40% 1 08.11.2026 -
Emerson Batalla Atletico Bucaramanga Aktiv 122 / 128 40% 2 05.11.2026 -
Franco Fagúndez Estudiantes Aktiv 110 / 110 40% 3 05.11.2026 -
Clemente Montes Universidad Catolica Aktiv 118 / 119 40% 2 30.10.2026 -
Agustín Venezia Iquique Aktiv 100 / 117 40% 2 30.10.2026 -
Favio Cabral Mitre Aktiv 113 / 112 40% 1 28.10.2026 -
Jannenson Sarmiento Junior Aktiv 126 / 115 40% 3 27.10.2026 -
Yeferson Rodallega Envigado Aktiv 114 / 108 40% 1 27.10.2026 -
Enzo Avaro Mitre Aktiv 108 / 117 40% 4 25.10.2026 -
Facundo de León Progreso Aktiv 112 / 110 40% 1 25.10.2026 -
Santiago Apa All Boys Aktiv 105 / 105 40% 1 23.10.2026 -
Bryan González Guadalajara Aktiv 141 / 142 40% 1 19.10.2026 -
Paulo Victor Queretaro Aktiv 101 / 108 40% 1 19.10.2026 -
Iván Tona Tijuana Aktiv 122 / 103 40% 1 18.10.2026 -
Valentín Depietri Talleres Aktiv 131 / 121 40% 2 13.10.2026 -
Roberto de la Rosa Monterrey Aktiv 123 / 124 40% 1 09.10.2026 -
Pedro Ramírez Deportivo Riestra Aktiv 121 / 114 40% 1 09.10.2026 -
Patrick Preciado Deportivo Pasto Aktiv 95 / 108 40% 2 05.10.2026 -
Eric Meza Estudiantes Aktiv 117 / 116 40% 1 05.10.2026 -
Alan Lescano Argentinos Juniors Aktiv 129 / 137 40% 1 05.10.2026 Mehr Infos nötig
Ezequiel Almirón Estudiantes Aktiv 122 / 107 40% 1 03.10.2026 -
Omar Campos Cruz Azul Aktiv 123 / 131 40% 1 01.10.2026 -
Gastón Benedetti Estudiantes Aktiv 125 / 126 40% 1 01.10.2026 -
Aldo López Santos Laguna Aktiv 120 / 111 40% 1 30.09.2026 -
Franco Watson Lanús Aktiv 130 / 124 40% 1 29.09.2026 -
Rodrigo González Mitre Aktiv 115 / 118 40% 1 29.09.2026 -
Santiago Simón Toluca Aktiv 128 / 110 40% 1 28.09.2026 -
Marcos López San Martín Aktiv 132 / 129 40% 1 28.09.2026 -
Ibrahim Aliyu Houston Dynamo Aktiv 124 / 111 40% 1 26.09.2026 -
Javier Martínez Almirante Brown Aktiv 117 / 114 40% 1 23.09.2026 -
Sebastián Marfort Racing Aktiv 94 / 109 40% 1 23.09.2026 -
Dom Ballard Leyton Orient Aktiv 126 / 122 40% 1 22.09.2026 -
Agustín Alaniz Juventud Aktiv 113 / 111 40% 1 22.09.2026 -
Justo Giani Universidad Catolica Aktiv 123 / 127 40% 1 21.09.2026 -
Adrián Sánchez Belgrano Aktiv 120 / 122 40% 1 20.09.2026 -
Nicolás Fonseca Leon Aktiv 121 / 135 40% 1 20.09.2026 -
Santiago González Tigre Aktiv 123 / 128 40% 1 18.09.2026 -
Juan David Rueda Alianza Petrolera Aktiv 104 / 116 40% 1 18.09.2026 -
Samuel Chamorro Morón Aktiv 80 / 88 40% 1 10.09.2026 -
Elías Ayala Madryn Aktiv 107 / 102 40% 1 09.09.2026 -
Aaron Spetale AGF Aktiv 117 / 107 40% 1 07.09.2026 -
Ezequiel Moya Chacarita Juniors Aktiv 92 / 96 40% 1 03.09.2026 -
Daniel Falcao La Equidad Aktiv 102 / 117 40% 1 01.09.2026 -
Andrey Estupiñán Millonarios Aktiv 126 / 125 40% 1 31.08.2026 -
Nico López Platense Aktiv 127 / 125 40% 1 31.08.2026 -
Tomás Molina Argentinos Juniors Aktiv 130 / 133 40% 1 27.08.2026 -
Alexis Cuello San Lorenzo Aktiv 120 / 127 40% 1 25.08.2026 -
Bianneider Tamayo Universidad de Chile Aktiv 105 / 119 40% 1 25.08.2026 -
Juan Manuel Villalba Tigre Aktiv 119 / 128 40% 1 03.08.2026 -
Marcelo Estigarribia Unión de Santa Fe Aktiv 121 / 124 40% 1 02.08.2026 -